Airport View

Enter AWOS ICAO identifier for current METAR.

ex. KFNL

KRRT 202355Z AUTO 12011KT 10SM CLR 19/17 A2983 RMK AO2 LTG DSNT N AND W

21 Sep 2019 00:26

Frequency: 119.925

Phone: 218-386-1813

Other Area AWOS: KROX - KFGN - KBDE - KVWU

TAF KTVF 202347Z 2100/2124 18015KT P6SM VCSH FEW045 SCT180 FM210300 16016KT P6SM VCTS SCT029CB BKN100 WS020/20045KT TEMPO 2104/2106 4SM +TSRA BR OVC025CB FM210600 17016KT 6SM TSRA BR OVC050CB FM211000 22008KT 6SM SHRA VCTS OVC029CB FM212200 27018G29KT P6SM VCSH SCT080